Eliasville, TX (76481)

3:00 PM CDT on August 02, 2015 (GMT -0500)
Loetz | | Change Station
CLOSE
Current Station
Personal Weather Station
Location: Breckenridge, TX
Elevation: 1204 ft
Nearby Weather Stations

Elev 1204 ft 32.95 °N, 98.75 °W | Updated 25 seconds ago

Clear
Clear
96.8 °F
Feels Like 98 °F
N
0.9
Wind Variable Wind from South
Gusts 2.5 mph

Today
High -- | Low -- °F
--% Chance of Precip.
Yesterday
High -- | Low -- °F
Precip. -- in
6:48 AM 8:32 PM
Waning Gibbous, 92% visible
Pressure 29.93 in
Visibility 10.0 miles
Clouds Clear
Heat Index 98 °F
Dew Point 61 °F
Humidity 31%
Rainfall 0.00 in
Snow Depth Not available.
UV 4.0 out of 12
Pollen 6.00 out of 12
Air Quality Not available.
Flu Activity Not available.
METAR KRPH 021935Z AUTO 14007KT 10SM CLR 34/18 A2993 RMK AO2 T03400176

More Conditions Fewer Conditions

Pressure 29.93 in
Visibility 10.0 miles
Clouds Clear
Heat Index 98 °F
Dew Point 61 °F
Humidity 31%
Rainfall 0.00 in
Snow Depth Not available.
UV 4.0 out of 12
Pollen 6.00 out of 12
Air Quality Not available.
Flu Activity Not available.
METAR KRPH 021935Z AUTO 14007KT 10SM CLR 34/18 A2993 RMK AO2 T03400176

More Conditions Fewer Conditions

Nowcast | as of 2:24 PM CDT on August 2, 2015

Scattered light rain or sprinkles are occurring north of a line from Bowie to Bonham. Only a trace of rainfall will occur with this activity as it moves to the southeast. Otherwise...warm conditions will prevail with temperatures in the upper 80s and 90s this afternoon. Skies will be partly to mostly cloudy.

×

10-Day Weather Forecast

×

Almanac

Astronomy

Aug. 02, 2015 Rise Set
Actual Time
Civil Twilight
Nautical Twilight
Astronomical Twilight
Moon
Length of Visible Light
Length of Day
Tomorrow will be .
, % of the Moon is Illuminated

Today's Extremes

State Highs State Lows

Community

WunderPhotos

Upload Photos

1,843,356 photos uploaded!

WunderBlogs® & News

Nearby

Air Quality

  Air Quality AQ Index Pollutant
Not available.

Snow Depth

Station Depth Elevation

Earthquake Activity

City Distance Mag. Time & Date
Minimum magnitude displayed is 2.5.

Coastal Water Temperatures

Place Temperature

Stations

Nearby Weather Stations

Station Location Temp. Windchill Dew Point Humidity Wind Precip. Elev Updated Type